Surface observations / UK / EGMC

Quebec | Canada | USA | France | UK | Europe | Elsewhere

Display: Info & Location for EGMC | Help decoding METAR

EGMC SOUTHEND-ON-SEA -- UK
Raw surface observations for station EGMC
EGMC 050150Z 00000KT 8000 NSC M02/M04 Q1024=
EGMC 050050Z 00000KT CAVOK M03/M04 Q1024=
EGMC 042350Z 00000KT CAVOK M02/M03 Q1024=
EGMC 042320Z 04002KT CAVOK M01/M03 Q1024=
EGMC 042250Z 00000KT CAVOK M01/M02 Q1024=
EGMC 042220Z 05002KT CAVOK M01/M03 Q1024=
EGMC 042150Z 10004KT CAVOK 00/M02 Q1024=
EGMC 042120Z 13005KT CAVOK 03/00 Q1024=
EGMC 042050Z 13004KT CAVOK 02/01 Q1024=
EGMC 042020Z 12004KT CAVOK 02/M00 Q1024=
EGMC 041950Z 12004KT CAVOK 02/M00 Q1024=
EGMC 041920Z 08005KT CAVOK 02/M01 Q1023=
EGMC 041850Z 08008KT CAVOK 03/M01 Q1024=
EGMC 041820Z 07004KT CAVOK 02/M02 Q1023=
EGMC 041750Z 07005KT CAVOK 02/M03 Q1023=
EGMC 041720Z 08006KT CAVOK 03/M01 Q1023=
EGMC 041650Z 09005KT CAVOK 03/M02 Q1023=
EGMC 041620Z 09007KT CAVOK 04/M01 Q1023=
EGMC 041550Z 09007KT CAVOK 05/M01 Q1023=
EGMC 041520Z 08009KT CAVOK 06/M01 Q1023=
EGMC 041450Z 09010KT CAVOK 06/M02 Q1023=
EGMC 041420Z 08012KT CAVOK 07/M01 Q1023=
EGMC 041350Z 08012KT CAVOK 07/M01 Q1023=
EGMC 041320Z 08012KT CAVOK 07/M02 Q1023=
EGMC 041250Z 08012KT CAVOK 08/M01 Q1024=
EGMC 041220Z 09011KT CAVOK 07/M01 Q1024=
EGMC 041150Z 09012KT CAVOK 08/00 Q1024=
EGMC 041120Z 09010KT CAVOK 07/00 Q1024=
EGMC 041050Z 10011KT CAVOK 07/01 Q1024=
EGMC 041020Z 10011KT CAVOK 07/01 Q1024=
EGMC 040950Z 08008KT CAVOK 07/01 Q1024=
EGMC 040920Z 07007KT CAVOK 05/01 Q1024=
EGMC 040850Z 07008KT CAVOK 04/M00 Q1025=
EGMC 040820Z 07005KT CAVOK 03/M01 Q1025=
EGMC 040750Z 07005KT CAVOK 03/M00 Q1025=
EGMC 040720Z 08007KT CAVOK 02/M01 Q1024=
EGMC 040650Z 07008KT CAVOK 03/00 Q1024=
EGMC 040620Z 07006KT CAVOK 03/M01 Q1024=
EGMC 040550Z 08006KT CAVOK 03/M00 Q1024=
EGMC 040520Z 08006KT CAVOK 03/M00 Q1024=
EGMC 040450Z 09007KT CAVOK 03/M00 Q1024=
EGMC 040350Z 09008KT CAVOK 04/00 Q1024=
EGMC 040250Z 10007KT CAVOK 05/01 Q1024=